sensor_id;sensor_type;location;lat;lon;timestamp;P1;durP1;ratioP1;P2;durP2;ratioP2
2001;SDS011;1003;48.002;7.788;2023-05-29T00:01:53;8.37;;;5.27;;
2001;SDS011;1003;48.002;7.788;2023-05-29T00:04:20;8.27;;;5.00;;
2001;SDS011;1003;48.002;7.788;2023-05-29T00:06:47;6.50;;;4.60;;
2001;SDS011;1003;48.002;7.788;2023-05-29T00:09:15;8.30;;;4.83;;
2001;SDS011;1003;48.002;7.788;2023-05-29T00:11:44;7.90;;;4.90;;
2001;SDS011;1003;48.002;7.788;2023-05-29T00:14:15;7.43;;;4.57;;
2001;SDS011;1003;48.002;7.788;2023-05-29T00:16:44;7.30;;;4.83;;
2001;SDS011;1003;48.002;7.788;2023-05-29T00:19:12;12.30;;;5.90;;
2001;SDS011;1003;48.002;7.788;2023-05-29T00:21:41;9.40;;;5.10;;
2001;SDS011;1003;48.002;7.788;2023-05-29T00:24:09;8.23;;;4.97;;
2001;SDS011;1003;48.002;7.788;2023-05-29T00:26:36;8.57;;;4.77;;
2001;SDS011;1003;48.002;7.788;2023-05-29T00:29:04;9.17;;;4.47;;
2001;SDS011;1003;48.002;7.788;2023-05-29T00:31:31;7.63;;;4.43;;
2001;SDS011;1003;48.002;7.788;2023-05-29T00:33:58;9.57;;;4.90;;
2001;SDS011;1003;48.002;7.788;2023-05-29T00:36:25;7.83;;;5.07;;
2001;SDS011;1003;48.002;7.788;2023-05-29T00:38:53;7.43;;;4.60;;
2001;SDS011;1003;48.002;7.788;2023-05-29T00:41:21;7.93;;;4.77;;
2001;SDS011;1003;48.002;7.788;2023-05-29T00:43:48;8.27;;;4.73;;
2001;SDS011;1003;48.002;7.788;2023-05-29T00:46:16;9.53;;;4.90;;
2001;SDS011;1003;48.002;7.788;2023-05-29T00:48:45;8.30;;;4.83;;
2001;SDS011;1003;48.002;7.788;2023-05-29T00:51:14;8.67;;;5.33;;
2001;SDS011;1003;48.002;7.788;2023-05-29T00:53:42;7.53;;;4.67;;
2001;SDS011;1003;48.002;7.788;2023-05-29T00:56:11;9.40;;;4.60;;
2001;SDS011;1003;48.002;7.788;2023-05-29T00:58:39;7.60;;;4.50;;
2001;SDS011;1003;48.002;7.788;2023-05-29T01:01:07;7.63;;;4.50;;
2001;SDS011;1003;48.002;7.788;2023-05-29T01:03:37;7.13;;;4.43;;
2001;SDS011;1003;48.002;7.788;2023-05-29T01:06:06;6.43;;;4.30;;
2001;SDS011;1003;48.002;7.788;2023-05-29T01:08:35;7.33;;;4.67;;
2001;SDS011;1003;48.002;7.788;2023-05-29T01:13:53;9.37;;;4.27;;
2001;SDS011;1003;48.002;7.788;2023-05-29T01:16:31;7.77;;;4.40;;
2001;SDS011;1003;48.002;7.788;2023-05-29T01:19:19;8.03;;;4.23;;
2001;SDS011;1003;48.002;7.788;2023-05-29T01:22:12;7.20;;;4.30;;
2001;SDS011;1003;48.002;7.788;2023-05-29T01:24:54;9.03;;;5.07;;
2001;SDS011;1003;48.002;7.788;2023-05-29T01:27:35;10.10;;;5.43;;
2001;SDS011;1003;48.002;7.788;2023-05-29T01:30:04;7.67;;;4.63;;
2001;SDS011;1003;48.002;7.788;2023-05-29T01:32:35;8.63;;;5.47;;
2001;SDS011;1003;48.002;7.788;2023-05-29T01:35:04;9.50;;;5.37;;
2001;SDS011;1003;48.002;7.788;2023-05-29T01:37:32;8.53;;;5.00;;
2001;SDS011;1003;48.002;7.788;2023-05-29T01:40:00;8.27;;;5.03;;
2001;SDS011;1003;48.002;7.788;2023-05-29T01:42:29;8.87;;;4.97;;
2001;SDS011;1003;48.002;7.788;2023-05-29T01:44:58;8.30;;;5.17;;
2001;SDS011;1003;48.002;7.788;2023-05-29T01:47:28;6.80;;;4.67;;
2001;SDS011;1003;48.002;7.788;2023-05-29T01:49:56;6.30;;;4.33;;
2001;SDS011;1003;48.002;7.788;2023-05-29T01:52:24;11.17;;;5.33;;
2001;SDS011;1003;48.002;7.788;2023-05-29T01:54:52;8.43;;;4.97;;
2001;SDS011;1003;48.002;7.788;2023-05-29T01:57:19;8.20;;;4.47;;
2001;SDS011;1003;48.002;7.788;2023-05-29T01:59:46;6.97;;;4.40;;
2001;SDS011;1003;48.002;7.788;2023-05-29T02:02:16;10.07;;;5.53;;
2001;SDS011;1003;48.002;7.788;2023-05-29T02:04:43;8.50;;;4.60;;
2001;SDS011;1003;48.002;7.788;2023-05-29T02:07:10;8.63;;;4.63;;
2001;SDS011;1003;48.002;7.788;2023-05-29T02:09:37;8.60;;;4.77;;
2001;SDS011;1003;48.002;7.788;2023-05-29T02:12:05;8.90;;;4.70;;
2001;SDS011;1003;48.002;7.788;2023-05-29T02:14:32;8.63;;;5.20;;
2001;SDS011;1003;48.002;7.788;2023-05-29T02:17:00;8.00;;;5.00;;
2001;SDS011;1003;48.002;7.788;2023-05-29T02:19:29;9.27;;;4.57;;
2001;SDS011;1003;48.002;7.788;2023-05-29T02:21:56;7.50;;;4.87;;
2001;SDS011;1003;48.002;7.788;2023-05-29T02:24:23;8.87;;;5.30;;
2001;SDS011;1003;48.002;7.788;2023-05-29T02:26:50;9.13;;;5.23;;
2001;SDS011;1003;48.002;7.788;2023-05-29T02:29:17;10.10;;;5.03;;
2001;SDS011;1003;48.002;7.788;2023-05-29T02:31:44;7.77;;;4.70;;
2001;SDS011;1003;48.002;7.788;2023-05-29T02:34:11;9.07;;;5.30;;
2001;SDS011;1003;48.002;7.788;2023-05-29T02:36:39;8.60;;;5.20;;
2001;SDS011;1003;48.002;7.788;2023-05-29T02:39:07;8.87;;;5.03;;
2001;SDS011;1003;48.002;7.788;2023-05-29T02:41:34;8.60;;;5.40;;
2001;SDS011;1003;48.002;7.788;2023-05-29T02:44:01;8.10;;;5.17;;
2001;SDS011;1003;48.002;7.788;2023-05-29T02:46:28;11.73;;;5.60;;
2001;SDS011;1003;48.002;7.788;2023-05-29T02:48:55;9.97;;;5.33;;
2001;SDS011;1003;48.002;7.788;2023-05-29T02:51:22;9.07;;;5.37;;
2001;SDS011;1003;48.002;7.788;2023-05-29T02:53:50;10.50;;;5.10;;
2001;SDS011;1003;48.002;7.788;2023-05-29T02:56:17;10.47;;;5.63;;
2001;SDS011;1003;48.002;7.788;2023-05-29T02:58:48;9.53;;;5.17;;
2001;SDS011;1003;48.002;7.788;2023-05-29T03:01:15;9.97;;;5.20;;
2001;SDS011;1003;48.002;7.788;2023-05-29T03:03:43;10.20;;;5.60;;
2001;SDS011;1003;48.002;7.788;2023-05-29T03:06:10;8.93;;;4.90;;
2001;SDS011;1003;48.002;7.788;2023-05-29T03:08:38;9.90;;;5.47;;
2001;SDS011;1003;48.002;7.788;2023-05-29T03:11:07;9.03;;;5.37;;
2001;SDS011;1003;48.002;7.788;2023-05-29T03:13:35;8.87;;;5.00;;
2001;SDS011;1003;48.002;7.788;2023-05-29T03:16:03;9.43;;;5.13;;
2001;SDS011;1003;48.002;7.788;2023-05-29T03:18:31;9.37;;;5.03;;
2001;SDS011;1003;48.002;7.788;2023-05-29T03:20:58;8.27;;;5.00;;
2001;SDS011;1003;48.002;7.788;2023-05-29T03:23:25;8.17;;;5.10;;
2001;SDS011;1003;48.002;7.788;2023-05-29T03:25:52;8.93;;;5.47;;
2001;SDS011;1003;48.002;7.788;2023-05-29T03:28:21;11.73;;;5.63;;
2001;SDS011;1003;48.002;7.788;2023-05-29T03:30:48;10.70;;;5.37;;
2001;SDS011;1003;48.002;7.788;2023-05-29T03:33:16;8.47;;;4.93;;
2001;SDS011;1003;48.002;7.788;2023-05-29T03:35:43;10.07;;;5.40;;
2001;SDS011;1003;48.002;7.788;2023-05-29T03:38:10;8.57;;;4.90;;
2001;SDS011;1003;48.002;7.788;2023-05-29T03:40:37;10.27;;;5.30;;
2001;SDS011;1003;48.002;7.788;2023-05-29T03:43:04;11.43;;;5.77;;
2001;SDS011;1003;48.002;7.788;2023-05-29T03:45:33;8.00;;;5.07;;
2001;SDS011;1003;48.002;7.788;2023-05-29T03:48:00;9.37;;;5.57;;
2001;SDS011;1003;48.002;7.788;2023-05-29T03:50:27;8.90;;;5.20;;
2001;SDS011;1003;48.002;7.788;2023-05-29T03:52:54;9.30;;;5.40;;
2001;SDS011;1003;48.002;7.788;2023-05-29T03:55:21;11.77;;;6.50;;
2001;SDS011;1003;48.002;7.788;2023-05-29T03:57:48;11.33;;;5.30;;
2001;SDS011;1003;48.002;7.788;2023-05-29T04:00:15;9.73;;;5.47;;
2001;SDS011;1003;48.002;7.788;2023-05-29T04:02:44;10.27;;;5.47;;
2001;SDS011;1003;48.002;7.788;2023-05-29T04:05:11;10.53;;;5.47;;
2001;SDS011;1003;48.002;7.788;2023-05-29T04:07:39;11.00;;;5.73;;
2001;SDS011;1003;48.002;7.788;2023-05-29T04:10:06;10.10;;;5.87;;
2001;SDS011;1003;48.002;7.788;2023-05-29T04:12:34;9.20;;;5.33;;
2001;SDS011;1003;48.002;7.788;2023-05-29T04:15:02;9.10;;;5.37;;
2001;SDS011;1003;48.002;7.788;2023-05-29T04:17:30;12.37;;;6.47;;
2001;SDS011;1003;48.002;7.788;2023-05-29T04:19:59;12.37;;;5.60;;
2001;SDS011;1003;48.002;7.788;2023-05-29T04:22:32;10.47;;;5.70;;
2001;SDS011;1003;48.002;7.788;2023-05-29T04:24:59;9.57;;;5.43;;
2001;SDS011;1003;48.002;7.788;2023-05-29T04:27:28;9.87;;;5.37;;
2001;SDS011;1003;48.002;7.788;2023-05-29T04:29:57;9.80;;;5.30;;
2001;SDS011;1003;48.002;7.788;2023-05-29T04:32:25;9.87;;;5.60;;
2001;SDS011;1003;48.002;7.788;2023-05-29T04:34:52;10.93;;;6.23;;
2001;SDS011;1003;48.002;7.788;2023-05-29T04:37:20;9.53;;;5.33;;
2001;SDS011;1003;48.002;7.788;2023-05-29T04:39:54;11.73;;;5.90;;
2001;SDS011;1003;48.002;7.788;2023-05-29T04:42:22;9.43;;;5.40;;
2001;SDS011;1003;48.002;7.788;2023-05-29T04:44:50;9.33;;;4.90;;
2001;SDS011;1003;48.002;7.788;2023-05-29T04:47:17;8.87;;;5.33;;
2001;SDS011;1003;48.002;7.788;2023-05-29T04:49:44;9.27;;;4.80;;
2001;SDS011;1003;48.002;7.788;2023-05-29T04:52:14;10.30;;;5.43;;
2001;SDS011;1003;48.002;7.788;2023-05-29T04:54:42;8.90;;;4.90;;
2001;SDS011;1003;48.002;7.788;2023-05-29T04:57:09;9.23;;;5.23;;
2001;SDS011;1003;48.002;7.788;2023-05-29T04:59:37;7.53;;;5.23;;
2001;SDS011;1003;48.002;7.788;2023-05-29T05:02:04;10.53;;;5.13;;
2001;SDS011;1003;48.002;7.788;2023-05-29T05:04:32;11.20;;;5.37;;
2001;SDS011;1003;48.002;7.788;2023-05-29T05:06:59;9.20;;;5.50;;
2001;SDS011;1003;48.002;7.788;2023-05-29T05:09:27;9.23;;;5.10;;
2001;SDS011;1003;48.002;7.788;2023-05-29T05:11:55;9.00;;;4.90;;
2001;SDS011;1003;48.002;7.788;2023-05-29T05:14:22;9.00;;;5.23;;
2001;SDS011;1003;48.002;7.788;2023-05-29T05:16:49;7.23;;;4.63;;
2001;SDS011;1003;48.002;7.788;2023-05-29T05:19:17;11.63;;;5.90;;
2001;SDS011;1003;48.002;7.788;2023-05-29T05:21:44;9.07;;;4.80;;
2001;SDS011;1003;48.002;7.788;2023-05-29T05:24:11;8.00;;;4.80;;
2001;SDS011;1003;48.002;7.788;2023-05-29T05:26:38;7.50;;;4.80;;
2001;SDS011;1003;48.002;7.788;2023-05-29T05:29:07;8.60;;;5.07;;
2001;SDS011;1003;48.002;7.788;2023-05-29T05:31:34;9.30;;;5.40;;
2001;SDS011;1003;48.002;7.788;2023-05-29T05:34:01;7.00;;;5.00;;
2001;SDS011;1003;48.002;7.788;2023-05-29T05:36:28;7.47;;;4.57;;
2001;SDS011;1003;48.002;7.788;2023-05-29T05:38:56;9.80;;;4.73;;
2001;SDS011;1003;48.002;7.788;2023-05-29T05:41:23;7.53;;;5.00;;
2001;SDS011;1003;48.002;7.788;2023-05-29T05:43:50;8.63;;;5.33;;
2001;SDS011;1003;48.002;7.788;2023-05-29T05:46:18;7.63;;;5.10;;
2001;SDS011;1003;48.002;7.788;2023-05-29T05:48:45;7.97;;;5.33;;
2001;SDS011;1003;48.002;7.788;2023-05-29T05:51:12;7.23;;;5.07;;
2001;SDS011;1003;48.002;7.788;2023-05-29T05:53:39;8.57;;;5.07;;
2001;SDS011;1003;48.002;7.788;2023-05-29T05:56:07;7.23;;;4.87;;
2001;SDS011;1003;48.002;7.788;2023-05-29T05:58:34;9.23;;;5.20;;
2001;SDS011;1003;48.002;7.788;2023-05-29T06:01:01;7.50;;;4.83;;
2001;SDS011;1003;48.002;7.788;2023-05-29T06:03:29;6.10;;;4.87;;
2001;SDS011;1003;48.002;7.788;2023-05-29T06:05:58;9.00;;;5.13;;
2001;SDS011;1003;48.002;7.788;2023-05-29T06:08:25;9.50;;;5.20;;
2001;SDS011;1003;48.002;7.788;2023-05-29T06:10:52;7.63;;;4.80;;
2001;SDS011;1003;48.002;7.788;2023-05-29T06:13:19;7.00;;;4.83;;
2001;SDS011;1003;48.002;7.788;2023-05-29T06:15:46;7.80;;;5.03;;
2001;SDS011;1003;48.002;7.788;2023-05-29T06:18:13;9.37;;;5.20;;
2001;SDS011;1003;48.002;7.788;2023-05-29T06:20:41;8.13;;;5.43;;
2001;SDS011;1003;48.002;7.788;2023-05-29T06:23:08;8.47;;;4.63;;
2001;SDS011;1003;48.002;7.788;2023-05-29T06:25:35;7.43;;;4.80;;
2001;SDS011;1003;48.002;7.788;2023-05-29T06:28:03;6.83;;;4.53;;
2001;SDS011;1003;48.002;7.788;2023-05-29T06:30:31;8.87;;;5.60;;
2001;SDS011;1003;48.002;7.788;2023-05-29T06:32:58;8.70;;;4.80;;
2001;SDS011;1003;48.002;7.788;2023-05-29T06:35:25;7.87;;;5.00;;
2001;SDS011;1003;48.002;7.788;2023-05-29T06:37:54;9.00;;;5.13;;
2001;SDS011;1003;48.002;7.788;2023-05-29T06:40:21;6.50;;;4.70;;
2001;SDS011;1003;48.002;7.788;2023-05-29T06:42:48;7.43;;;4.80;;
2001;SDS011;1003;48.002;7.788;2023-05-29T06:45:15;9.03;;;4.93;;
2001;SDS011;1003;48.002;7.788;2023-05-29T06:47:42;6.23;;;4.47;;
2001;SDS011;1003;48.002;7.788;2023-05-29T06:50:10;7.33;;;4.60;;
2001;SDS011;1003;48.002;7.788;2023-05-29T06:52:37;7.63;;;4.77;;
2001;SDS011;1003;48.002;7.788;2023-05-29T06:55:06;9.37;;;4.90;;
2001;SDS011;1003;48.002;7.788;2023-05-29T06:57:34;7.93;;;4.53;;
2001;SDS011;1003;48.002;7.788;2023-05-29T07:00:01;8.33;;;4.83;;
2001;SDS011;1003;48.002;7.788;2023-05-29T07:02:28;6.70;;;4.63;;
2001;SDS011;1003;48.002;7.788;2023-05-29T07:04:55;9.03;;;4.87;;
2001;SDS011;1003;48.002;7.788;2023-05-29T07:07:22;10.40;;;4.83;;
2001;SDS011;1003;48.002;7.788;2023-05-29T07:09:49;7.27;;;4.70;;
2001;SDS011;1003;48.002;7.788;2023-05-29T07:12:18;8.30;;;4.63;;
2001;SDS011;1003;48.002;7.788;2023-05-29T07:14:45;8.90;;;4.60;;
2001;SDS011;1003;48.002;7.788;2023-05-29T07:17:13;7.03;;;5.03;;
2001;SDS011;1003;48.002;7.788;2023-05-29T07:19:40;7.27;;;4.53;;
2001;SDS011;1003;48.002;7.788;2023-05-29T07:22:07;7.50;;;4.47;;
2001;SDS011;1003;48.002;7.788;2023-05-29T07:24:34;8.30;;;4.60;;
2001;SDS011;1003;48.002;7.788;2023-05-29T07:27:02;9.27;;;4.40;;
2001;SDS011;1003;48.002;7.788;2023-05-29T07:29:31;6.80;;;4.70;;
2001;SDS011;1003;48.002;7.788;2023-05-29T07:31:58;7.80;;;4.13;;
2001;SDS011;1003;48.002;7.788;2023-05-29T07:34:25;7.70;;;4.47;;
2001;SDS011;1003;48.002;7.788;2023-05-29T07:36:56;8.33;;;4.50;;
2001;SDS011;1003;48.002;7.788;2023-05-29T07:39:25;9.33;;;4.60;;
2001;SDS011;1003;48.002;7.788;2023-05-29T07:41:53;6.13;;;4.13;;
2001;SDS011;1003;48.002;7.788;2023-05-29T07:44:20;6.57;;;4.20;;
2001;SDS011;1003;48.002;7.788;2023-05-29T07:46:49;6.90;;;4.63;;
2001;SDS011;1003;48.002;7.788;2023-05-29T07:49:16;7.93;;;4.53;;
2001;SDS011;1003;48.002;7.788;2023-05-29T07:51:43;7.90;;;4.60;;
2001;SDS011;1003;48.002;7.788;2023-05-29T07:54:10;7.50;;;4.50;;
2001;SDS011;1003;48.002;7.788;2023-05-29T07:56:38;9.53;;;4.50;;
2001;SDS011;1003;48.002;7.788;2023-05-29T07:59:05;7.03;;;4.20;;
2001;SDS011;1003;48.002;7.788;2023-05-29T08:01:33;6.17;;;4.00;;
2001;SDS011;1003;48.002;7.788;2023-05-29T08:04:03;6.60;;;3.77;;
2001;SDS011;1003;48.002;7.788;2023-05-29T08:06:30;5.10;;;3.93;;
2001;SDS011;1003;48.002;7.788;2023-05-29T08:08:59;6.10;;;3.60;;
2001;SDS011;1003;48.002;7.788;2023-05-29T08:11:26;7.57;;;4.33;;
2001;SDS011;1003;48.002;7.788;2023-05-29T08:13:53;6.57;;;3.73;;
2001;SDS011;1003;48.002;7.788;2023-05-29T08:16:20;5.67;;;3.80;;
2001;SDS011;1003;48.002;7.788;2023-05-29T08:18:48;4.90;;;3.73;;
2001;SDS011;1003;48.002;7.788;2023-05-29T08:21:16;6.43;;;3.87;;
2001;SDS011;1003;48.002;7.788;2023-05-29T08:23:44;8.50;;;3.80;;
2001;SDS011;1003;48.002;7.788;2023-05-29T08:26:11;6.00;;;3.90;;
2001;SDS011;1003;48.002;7.788;2023-05-29T08:28:38;5.90;;;3.83;;
2001;SDS011;1003;48.002;7.788;2023-05-29T08:31:05;4.77;;;3.60;;
2001;SDS011;1003;48.002;7.788;2023-05-29T08:33:33;6.50;;;3.63;;
2001;SDS011;1003;48.002;7.788;2023-05-29T08:36:01;5.20;;;3.73;;
2001;SDS011;1003;48.002;7.788;2023-05-29T08:38:30;7.03;;;4.03;;
2001;SDS011;1003;48.002;7.788;2023-05-29T08:40:57;5.43;;;3.80;;
2001;SDS011;1003;48.002;7.788;2023-05-29T08:43:25;5.13;;;3.93;;
2001;SDS011;1003;48.002;7.788;2023-05-29T08:45:59;5.97;;;3.50;;
2001;SDS011;1003;48.002;7.788;2023-05-29T08:48:29;4.87;;;3.53;;
2001;SDS011;1003;48.002;7.788;2023-05-29T08:50:58;7.77;;;4.03;;
2001;SDS011;1003;48.002;7.788;2023-05-29T08:53:31;5.37;;;3.13;;
2001;SDS011;1003;48.002;7.788;2023-05-29T08:55:59;4.83;;;3.80;;
2001;SDS011;1003;48.002;7.788;2023-05-29T08:58:28;6.47;;;3.67;;
2001;SDS011;1003;48.002;7.788;2023-05-29T09:00:57;5.73;;;3.40;;
2001;SDS011;1003;48.002;7.788;2023-05-29T09:03:24;5.67;;;3.60;;
2001;SDS011;1003;48.002;7.788;2023-05-29T09:05:52;6.40;;;3.70;;
2001;SDS011;1003;48.002;7.788;2023-05-29T09:08:25;6.67;;;3.70;;
2001;SDS011;1003;48.002;7.788;2023-05-29T09:10:54;7.20;;;3.70;;
2001;SDS011;1003;48.002;7.788;2023-05-29T09:13:22;5.57;;;3.67;;
2001;SDS011;1003;48.002;7.788;2023-05-29T09:15:49;4.93;;;3.40;;
2001;SDS011;1003;48.002;7.788;2023-05-29T09:18:22;5.53;;;3.50;;
2001;SDS011;1003;48.002;7.788;2023-05-29T09:20:49;7.77;;;3.83;;
2001;SDS011;1003;48.002;7.788;2023-05-29T09:23:16;6.67;;;3.77;;
2001;SDS011;1003;48.002;7.788;2023-05-29T09:25:44;6.07;;;3.70;;
2001;SDS011;1003;48.002;7.788;2023-05-29T09:28:21;7.90;;;3.60;;
2001;SDS011;1003;48.002;7.788;2023-05-29T09:30:52;5.43;;;3.87;;
2001;SDS011;1003;48.002;7.788;2023-05-29T09:33:19;7.23;;;3.80;;
2001;SDS011;1003;48.002;7.788;2023-05-29T09:35:46;5.37;;;3.77;;
2001;SDS011;1003;48.002;7.788;2023-05-29T09:38:16;5.27;;;3.50;;
2001;SDS011;1003;48.002;7.788;2023-05-29T09:40:45;6.47;;;3.53;;
2001;SDS011;1003;48.002;7.788;2023-05-29T09:43:13;6.23;;;3.33;;
2001;SDS011;1003;48.002;7.788;2023-05-29T09:45:44;5.07;;;3.47;;
2001;SDS011;1003;48.002;7.788;2023-05-29T09:48:13;5.30;;;3.47;;
2001;SDS011;1003;48.002;7.788;2023-05-29T09:50:42;4.67;;;3.03;;
2001;SDS011;1003;48.002;7.788;2023-05-29T09:53:16;5.40;;;3.37;;
2001;SDS011;1003;48.002;7.788;2023-05-29T09:55:45;5.17;;;3.60;;
2001;SDS011;1003;48.002;7.788;2023-05-29T09:58:13;5.67;;;3.90;;
2001;SDS011;1003;48.002;7.788;2023-05-29T10:00:41;6.40;;;3.90;;
2001;SDS011;1003;48.002;7.788;2023-05-29T10:03:10;5.77;;;3.47;;
2001;SDS011;1003;48.002;7.788;2023-05-29T10:05:38;4.80;;;3.43;;
2001;SDS011;1003;48.002;7.788;2023-05-29T10:08:05;5.87;;;3.63;;
2001;SDS011;1003;48.002;7.788;2023-05-29T10:10:38;5.47;;;3.73;;
2001;SDS011;1003;48.002;7.788;2023-05-29T10:13:10;4.53;;;3.50;;
2001;SDS011;1003;48.002;7.788;2023-05-29T10:15:40;5.90;;;3.50;;
2001;SDS011;1003;48.002;7.788;2023-05-29T10:18:12;5.97;;;3.63;;
2001;SDS011;1003;48.002;7.788;2023-05-29T10:20:47;4.80;;;3.23;;
2001;SDS011;1003;48.002;7.788;2023-05-29T10:23:17;4.87;;;3.30;;
2001;SDS011;1003;48.002;7.788;2023-05-29T10:25:49;7.30;;;3.67;;
2001;SDS011;1003;48.002;7.788;2023-05-29T10:28:20;5.33;;;3.47;;
2001;SDS011;1003;48.002;7.788;2023-05-29T10:30:52;4.73;;;3.53;;
2001;SDS011;1003;48.002;7.788;2023-05-29T10:33:30;6.93;;;3.87;;
2001;SDS011;1003;48.002;7.788;2023-05-29T10:36:15;6.13;;;3.70;;
2001;SDS011;1003;48.002;7.788;2023-05-29T10:38:46;6.07;;;3.87;;
2001;SDS011;1003;48.002;7.788;2023-05-29T10:41:30;6.00;;;3.50;;
2001;SDS011;1003;48.002;7.788;2023-05-29T10:43:59;6.73;;;3.60;;
2001;SDS011;1003;48.002;7.788;2023-05-29T10:49:34;6.70;;;3.60;;
2001;SDS011;1003;48.002;7.788;2023-05-29T10:52:02;4.53;;;3.40;;
2001;SDS011;1003;48.002;7.788;2023-05-29T10:54:40;5.33;;;3.53;;
2001;SDS011;1003;48.002;7.788;2023-05-29T10:57:17;4.73;;;3.20;;
2001;SDS011;1003;48.002;7.788;2023-05-29T10:59:47;6.83;;;3.57;;
2001;SDS011;1003;48.002;7.788;2023-05-29T11:02:24;6.60;;;3.60;;
2001;SDS011;1003;48.002;7.788;2023-05-29T11:05:06;5.63;;;3.30;;
2001;SDS011;1003;48.002;7.788;2023-05-29T11:07:50;6.83;;;3.60;;
2001;SDS011;1003;48.002;7.788;2023-05-29T11:10:43;7.37;;;3.63;;
2001;SDS011;1003;48.002;7.788;2023-05-29T11:13:25;5.93;;;3.37;;
2001;SDS011;1003;48.002;7.788;2023-05-29T11:19:05;6.90;;;3.53;;
2001;SDS011;1003;48.002;7.788;2023-05-29T11:21:41;5.67;;;3.57;;
2001;SDS011;1003;48.002;7.788;2023-05-29T11:24:23;8.00;;;3.53;;
2001;SDS011;1003;48.002;7.788;2023-05-29T11:26:52;6.33;;;3.73;;
2001;SDS011;1003;48.002;7.788;2023-05-29T11:29:22;5.23;;;3.40;;
2001;SDS011;1003;48.002;7.788;2023-05-29T11:31:54;6.70;;;3.83;;
2001;SDS011;1003;48.002;7.788;2023-05-29T11:34:29;5.43;;;3.33;;
2001;SDS011;1003;48.002;7.788;2023-05-29T11:36:58;7.57;;;3.93;;
2001;SDS011;1003;48.002;7.788;2023-05-29T11:39:26;6.20;;;3.60;;
2001;SDS011;1003;48.002;7.788;2023-05-29T11:41:54;5.33;;;3.50;;
2001;SDS011;1003;48.002;7.788;2023-05-29T11:44:23;7.07;;;3.83;;
2001;SDS011;1003;48.002;7.788;2023-05-29T11:46:58;4.77;;;3.40;;
2001;SDS011;1003;48.002;7.788;2023-05-29T11:49:29;4.77;;;3.40;;
2001;SDS011;1003;48.002;7.788;2023-05-29T11:52:07;5.67;;;3.70;;
2001;SDS011;1003;48.002;7.788;2023-05-29T11:54:35;5.63;;;3.50;;
2001;SDS011;1003;48.002;7.788;2023-05-29T11:57:03;8.20;;;3.60;;
2001;SDS011;1003;48.002;7.788;2023-05-29T11:59:31;5.47;;;3.60;;
2001;SDS011;1003;48.002;7.788;2023-05-29T12:01:58;5.73;;;3.87;;
2001;SDS011;1003;48.002;7.788;2023-05-29T12:04:29;8.07;;;4.10;;
2001;SDS011;1003;48.002;7.788;2023-05-29T12:06:56;6.07;;;3.80;;
2001;SDS011;1003;48.002;7.788;2023-05-29T12:09:24;7.03;;;3.77;;
2001;SDS011;1003;48.002;7.788;2023-05-29T12:11:53;6.60;;;4.00;;
2001;SDS011;1003;48.002;7.788;2023-05-29T12:14:20;7.00;;;3.40;;
2001;SDS011;1003;48.002;7.788;2023-05-29T12:16:47;8.30;;;3.90;;
2001;SDS011;1003;48.002;7.788;2023-05-29T12:19:15;5.33;;;3.50;;
2001;SDS011;1003;48.002;7.788;2023-05-29T12:21:43;5.40;;;3.40;;
2001;SDS011;1003;48.002;7.788;2023-05-29T12:24:11;6.17;;;3.70;;
2001;SDS011;1003;48.002;7.788;2023-05-29T12:26:38;5.77;;;3.40;;
2001;SDS011;1003;48.002;7.788;2023-05-29T12:29:05;5.37;;;3.50;;
2001;SDS011;1003;48.002;7.788;2023-05-29T12:31:32;5.93;;;3.57;;
2001;SDS011;1003;48.002;7.788;2023-05-29T12:34:00;5.80;;;3.77;;
2001;SDS011;1003;48.002;7.788;2023-05-29T12:36:28;5.20;;;3.60;;
2001;SDS011;1003;48.002;7.788;2023-05-29T12:38:57;6.90;;;3.63;;
2001;SDS011;1003;48.002;7.788;2023-05-29T12:41:25;6.00;;;3.50;;
2001;SDS011;1003;48.002;7.788;2023-05-29T12:43:54;6.67;;;3.70;;
2001;SDS011;1003;48.002;7.788;2023-05-29T12:46:34;7.00;;;3.70;;
2001;SDS011;1003;48.002;7.788;2023-05-29T12:49:13;5.43;;;3.70;;
2001;SDS011;1003;48.002;7.788;2023-05-29T12:52:06;8.80;;;4.10;;
2001;SDS011;1003;48.002;7.788;2023-05-29T12:54:37;5.77;;;3.87;;
2001;SDS011;1003;48.002;7.788;2023-05-29T12:57:05;5.93;;;3.63;;
2001;SDS011;1003;48.002;7.788;2023-05-29T12:59:33;11.60;;;4.07;;
2001;SDS011;1003;48.002;7.788;2023-05-29T13:02:00;6.53;;;3.70;;
2001;SDS011;1003;48.002;7.788;2023-05-29T13:04:27;7.03;;;3.70;;
2001;SDS011;1003;48.002;7.788;2023-05-29T13:06:54;7.13;;;3.87;;
2001;SDS011;1003;48.002;7.788;2023-05-29T13:09:21;7.13;;;3.90;;
2001;SDS011;1003;48.002;7.788;2023-05-29T13:11:49;4.67;;;3.50;;
2001;SDS011;1003;48.002;7.788;2023-05-29T13:14:18;9.33;;;3.90;;
2001;SDS011;1003;48.002;7.788;2023-05-29T13:16:45;8.03;;;3.97;;
2001;SDS011;1003;48.002;7.788;2023-05-29T13:19:12;6.70;;;3.93;;
2001;SDS011;1003;48.002;7.788;2023-05-29T13:21:39;5.73;;;3.67;;
2001;SDS011;1003;48.002;7.788;2023-05-29T13:24:13;5.23;;;3.90;;
2001;SDS011;1003;48.002;7.788;2023-05-29T13:26:40;6.20;;;3.70;;
2001;SDS011;1003;48.002;7.788;2023-05-29T13:29:08;6.53;;;4.00;;
2001;SDS011;1003;48.002;7.788;2023-05-29T13:31:35;5.70;;;4.00;;
2001;SDS011;1003;48.002;7.788;2023-05-29T13:34:02;5.40;;;3.93;;
2001;SDS011;1003;48.002;7.788;2023-05-29T13:36:30;7.30;;;4.00;;
2001;SDS011;1003;48.002;7.788;2023-05-29T13:38:57;6.90;;;3.73;;
2001;SDS011;1003;48.002;7.788;2023-05-29T13:41:24;7.20;;;3.90;;
2001;SDS011;1003;48.002;7.788;2023-05-29T13:43:51;6.17;;;3.77;;
2001;SDS011;1003;48.002;7.788;2023-05-29T13:46:20;5.57;;;3.60;;
2001;SDS011;1003;48.002;7.788;2023-05-29T13:48:47;6.47;;;3.83;;
2001;SDS011;1003;48.002;7.788;2023-05-29T13:51:14;4.63;;;3.80;;
2001;SDS011;1003;48.002;7.788;2023-05-29T13:53:41;4.80;;;3.70;;
2001;SDS011;1003;48.002;7.788;2023-05-29T13:56:08;5.57;;;3.80;;
2001;SDS011;1003;48.002;7.788;2023-05-29T13:58:35;5.80;;;4.03;;
2001;SDS011;1003;48.002;7.788;2023-05-29T14:01:02;5.73;;;3.70;;
2001;SDS011;1003;48.002;7.788;2023-05-29T14:03:31;5.57;;;3.60;;
2001;SDS011;1003;48.002;7.788;2023-05-29T14:05:58;5.50;;;3.63;;
2001;SDS011;1003;48.002;7.788;2023-05-29T14:08:25;4.33;;;3.87;;
2001;SDS011;1003;48.002;7.788;2023-05-29T14:10:52;5.90;;;3.90;;
2001;SDS011;1003;48.002;7.788;2023-05-29T14:13:19;4.37;;;3.80;;
2001;SDS011;1003;48.002;7.788;2023-05-29T14:15:46;6.53;;;3.77;;
2001;SDS011;1003;48.002;7.788;2023-05-29T14:18:14;6.57;;;3.80;;
2001;SDS011;1003;48.002;7.788;2023-05-29T14:20:43;4.90;;;3.70;;
2001;SDS011;1003;48.002;7.788;2023-05-29T14:23:12;6.80;;;4.23;;
2001;SDS011;1003;48.002;7.788;2023-05-29T14:25:40;5.67;;;3.77;;
2001;SDS011;1003;48.002;7.788;2023-05-29T14:28:08;6.10;;;3.93;;
2001;SDS011;1003;48.002;7.788;2023-05-29T14:30:35;5.00;;;3.47;;
2001;SDS011;1003;48.002;7.788;2023-05-29T14:33:02;7.93;;;3.97;;
2001;SDS011;1003;48.002;7.788;2023-05-29T14:35:30;5.13;;;3.53;;
2001;SDS011;1003;48.002;7.788;2023-05-29T14:37:58;5.23;;;4.00;;
2001;SDS011;1003;48.002;7.788;2023-05-29T14:40:28;6.43;;;4.07;;
2001;SDS011;1003;48.002;7.788;2023-05-29T14:42:56;7.10;;;4.00;;
2001;SDS011;1003;48.002;7.788;2023-05-29T14:45:23;4.87;;;3.70;;
2001;SDS011;1003;48.002;7.788;2023-05-29T14:47:50;5.57;;;3.70;;
2001;SDS011;1003;48.002;7.788;2023-05-29T14:50:17;5.50;;;3.77;;
2001;SDS011;1003;48.002;7.788;2023-05-29T14:52:45;5.27;;;4.10;;
2001;SDS011;1003;48.002;7.788;2023-05-29T14:55:14;7.17;;;4.17;;
2001;SDS011;1003;48.002;7.788;2023-05-29T14:57:41;5.93;;;3.67;;
2001;SDS011;1003;48.002;7.788;2023-05-29T15:00:08;4.83;;;3.73;;
2001;SDS011;1003;48.002;7.788;2023-05-29T15:02:36;7.60;;;3.77;;
2001;SDS011;1003;48.002;7.788;2023-05-29T15:05:04;5.53;;;3.93;;
2001;SDS011;1003;48.002;7.788;2023-05-29T15:07:32;5.43;;;3.73;;
2001;SDS011;1003;48.002;7.788;2023-05-29T15:10:00;5.97;;;3.50;;
2001;SDS011;1003;48.002;7.788;2023-05-29T15:12:29;5.63;;;3.63;;
2001;SDS011;1003;48.002;7.788;2023-05-29T15:14:58;7.57;;;3.83;;
2001;SDS011;1003;48.002;7.788;2023-05-29T15:17:25;4.67;;;3.60;;
2001;SDS011;1003;48.002;7.788;2023-05-29T15:19:52;5.10;;;3.60;;
2001;SDS011;1003;48.002;7.788;2023-05-29T15:22:19;5.27;;;3.70;;
2001;SDS011;1003;48.002;7.788;2023-05-29T15:24:46;4.77;;;3.80;;
2001;SDS011;1003;48.002;7.788;2023-05-29T15:27:13;5.90;;;3.50;;
2001;SDS011;1003;48.002;7.788;2023-05-29T15:29:41;4.43;;;3.50;;
2001;SDS011;1003;48.002;7.788;2023-05-29T15:32:09;5.10;;;3.50;;
2001;SDS011;1003;48.002;7.788;2023-05-29T15:34:36;4.57;;;3.53;;